sensor_id;sensor_type;location;lat;lon;timestamp;P1;durP1;ratioP1;P2;durP2;ratioP2
56373;SDS011;58212;47.034;7.376;2023-02-25T00:01:57;4.50;;;2.20;;
56373;SDS011;58212;47.034;7.376;2023-02-25T00:04:27;4.55;;;2.38;;
56373;SDS011;58212;47.034;7.376;2023-02-25T00:07:19;3.22;;;2.05;;
56373;SDS011;58212;47.034;7.376;2023-02-25T00:09:47;4.03;;;2.25;;
56373;SDS011;58212;47.034;7.376;2023-02-25T00:12:14;4.35;;;2.17;;
56373;SDS011;58212;47.034;7.376;2023-02-25T00:15:06;4.65;;;2.83;;
56373;SDS011;58212;47.034;7.376;2023-02-25T00:17:35;2.78;;;2.17;;
56373;SDS011;58212;47.034;7.376;2023-02-25T00:20:06;4.65;;;2.40;;
56373;SDS011;58212;47.034;7.376;2023-02-25T00:22:40;3.40;;;1.90;;
56373;SDS011;58212;47.034;7.376;2023-02-25T00:25:08;5.10;;;2.15;;
56373;SDS011;58212;47.034;7.376;2023-02-25T00:30:57;3.83;;;1.95;;
56373;SDS011;58212;47.034;7.376;2023-02-25T00:33:24;4.65;;;2.45;;
56373;SDS011;58212;47.034;7.376;2023-02-25T00:35:53;3.42;;;1.80;;
56373;SDS011;58212;47.034;7.376;2023-02-25T00:38:20;3.03;;;1.73;;
56373;SDS011;58212;47.034;7.376;2023-02-25T00:41:12;2.47;;;2.03;;
56373;SDS011;58212;47.034;7.376;2023-02-25T00:43:41;3.38;;;1.90;;
56373;SDS011;58212;47.034;7.376;2023-02-25T00:46:09;3.15;;;2.00;;
56373;SDS011;58212;47.034;7.376;2023-02-25T00:48:36;4.35;;;1.95;;
56373;SDS011;58212;47.034;7.376;2023-02-25T00:51:08;3.33;;;2.08;;
56373;SDS011;58212;47.034;7.376;2023-02-25T00:53:39;4.53;;;2.17;;
56373;SDS011;58212;47.034;7.376;2023-02-25T00:56:08;3.88;;;1.67;;
56373;SDS011;58212;47.034;7.376;2023-02-25T00:58:39;3.47;;;1.80;;
56373;SDS011;58212;47.034;7.376;2023-02-25T01:01:14;4.07;;;1.63;;
56373;SDS011;58212;47.034;7.376;2023-02-25T01:03:44;4.78;;;1.75;;
56373;SDS011;58212;47.034;7.376;2023-02-25T01:06:15;5.07;;;1.83;;
56373;SDS011;58212;47.034;7.376;2023-02-25T01:08:43;4.45;;;2.08;;
56373;SDS011;58212;47.034;7.376;2023-02-25T01:11:11;2.38;;;1.40;;
56373;SDS011;58212;47.034;7.376;2023-02-25T01:13:41;4.38;;;1.75;;
56373;SDS011;58212;47.034;7.376;2023-02-25T01:16:09;3.30;;;2.08;;
56373;SDS011;58212;47.034;7.376;2023-02-25T01:19:03;4.32;;;2.10;;
56373;SDS011;58212;47.034;7.376;2023-02-25T01:21:57;2.35;;;1.52;;
56373;SDS011;58212;47.034;7.376;2023-02-25T01:24:25;3.38;;;1.80;;
56373;SDS011;58212;47.034;7.376;2023-02-25T01:26:55;7.25;;;2.13;;
56373;SDS011;58212;47.034;7.376;2023-02-25T01:29:24;5.03;;;1.67;;
56373;SDS011;58212;47.034;7.376;2023-02-25T01:31:58;3.38;;;1.75;;
56373;SDS011;58212;47.034;7.376;2023-02-25T01:34:28;2.72;;;1.73;;
56373;SDS011;58212;47.034;7.376;2023-02-25T01:36:56;4.78;;;1.80;;
56373;SDS011;58212;47.034;7.376;2023-02-25T01:39:25;3.17;;;1.80;;
56373;SDS011;58212;47.034;7.376;2023-02-25T01:41:53;3.78;;;1.63;;
56373;SDS011;58212;47.034;7.376;2023-02-25T01:44:28;4.43;;;1.92;;
56373;SDS011;58212;47.034;7.376;2023-02-25T01:46:56;4.55;;;1.88;;
56373;SDS011;58212;47.034;7.376;2023-02-25T01:49:24;2.38;;;1.52;;
56373;SDS011;58212;47.034;7.376;2023-02-25T01:51:56;3.05;;;1.67;;
56373;SDS011;58212;47.034;7.376;2023-02-25T01:54:53;4.38;;;2.00;;
56373;SDS011;58212;47.034;7.376;2023-02-25T01:57:26;3.92;;;1.55;;
56373;SDS011;58212;47.034;7.376;2023-02-25T01:59:55;3.17;;;1.90;;
56373;SDS011;58212;47.034;7.376;2023-02-25T02:02:24;2.45;;;1.75;;
56373;SDS011;58212;47.034;7.376;2023-02-25T02:04:54;3.97;;;1.52;;
56373;SDS011;58212;47.034;7.376;2023-02-25T02:07:23;3.80;;;1.60;;
56373;SDS011;58212;47.034;7.376;2023-02-25T02:09:50;3.03;;;1.67;;
56373;SDS011;58212;47.034;7.376;2023-02-25T02:12:21;4.47;;;1.80;;
56373;SDS011;58212;47.034;7.376;2023-02-25T02:14:51;4.03;;;2.00;;
56373;SDS011;58212;47.034;7.376;2023-02-25T02:17:20;3.72;;;1.60;;
56373;SDS011;58212;47.034;7.376;2023-02-25T02:20:01;3.63;;;1.50;;
56373;SDS011;58212;47.034;7.376;2023-02-25T02:22:42;3.78;;;2.08;;
56373;SDS011;58212;47.034;7.376;2023-02-25T02:25:34;3.05;;;1.80;;
56373;SDS011;58212;47.034;7.376;2023-02-25T02:31:38;3.17;;;1.45;;
56373;SDS011;58212;47.034;7.376;2023-02-25T02:34:17;3.35;;;1.60;;
56373;SDS011;58212;47.034;7.376;2023-02-25T02:36:57;3.70;;;1.60;;
56373;SDS011;58212;47.034;7.376;2023-02-25T02:39:57;3.55;;;1.70;;
56373;SDS011;58212;47.034;7.376;2023-02-25T02:42:50;2.85;;;1.40;;
56373;SDS011;58212;47.034;7.376;2023-02-25T02:45:28;3.90;;;1.27;;
56373;SDS011;58212;47.034;7.376;2023-02-25T02:48:06;4.40;;;1.90;;
56373;SDS011;58212;47.034;7.376;2023-02-25T02:50:37;6.72;;;1.85;;
56373;SDS011;58212;47.034;7.376;2023-02-25T02:53:33;3.05;;;1.63;;
56373;SDS011;58212;47.034;7.376;2023-02-25T02:56:30;2.70;;;1.55;;
56373;SDS011;58212;47.034;7.376;2023-02-25T02:59:25;2.33;;;1.35;;
56373;SDS011;58212;47.034;7.376;2023-02-25T03:02:01;3.78;;;1.52;;
56373;SDS011;58212;47.034;7.376;2023-02-25T03:04:35;1.90;;;1.40;;
56373;SDS011;58212;47.034;7.376;2023-02-25T03:07:33;3.20;;;1.52;;
56373;SDS011;58212;47.034;7.376;2023-02-25T03:10:04;2.47;;;1.50;;
56373;SDS011;58212;47.034;7.376;2023-02-25T03:12:35;1.98;;;1.20;;
56373;SDS011;58212;47.034;7.376;2023-02-25T03:15:04;1.98;;;1.17;;
56373;SDS011;58212;47.034;7.376;2023-02-25T03:17:59;3.60;;;1.55;;
56373;SDS011;58212;47.034;7.376;2023-02-25T03:20:34;3.45;;;1.33;;
56373;SDS011;58212;47.034;7.376;2023-02-25T03:23:06;4.43;;;1.50;;
56373;SDS011;58212;47.034;7.376;2023-02-25T03:25:37;4.88;;;1.73;;
56373;SDS011;58212;47.034;7.376;2023-02-25T03:28:15;3.22;;;1.33;;
56373;SDS011;58212;47.034;7.376;2023-02-25T03:30:56;3.60;;;1.65;;
56373;SDS011;58212;47.034;7.376;2023-02-25T03:33:31;3.25;;;1.63;;
56373;SDS011;58212;47.034;7.376;2023-02-25T03:36:03;3.40;;;1.90;;
56373;SDS011;58212;47.034;7.376;2023-02-25T03:38:35;2.55;;;1.30;;
56373;SDS011;58212;47.034;7.376;2023-02-25T03:41:06;3.00;;;1.50;;
56373;SDS011;58212;47.034;7.376;2023-02-25T03:43:36;3.22;;;1.88;;
56373;SDS011;58212;47.034;7.376;2023-02-25T03:46:10;4.85;;;2.00;;
56373;SDS011;58212;47.034;7.376;2023-02-25T03:48:38;2.58;;;1.65;;
56373;SDS011;58212;47.034;7.376;2023-02-25T03:51:10;4.80;;;1.45;;
56373;SDS011;58212;47.034;7.376;2023-02-25T03:53:44;2.78;;;1.80;;
56373;SDS011;58212;47.034;7.376;2023-02-25T03:56:41;3.33;;;2.30;;
56373;SDS011;58212;47.034;7.376;2023-02-25T03:59:12;3.55;;;2.10;;
56373;SDS011;58212;47.034;7.376;2023-02-25T04:01:39;3.60;;;2.10;;
56373;SDS011;58212;47.034;7.376;2023-02-25T04:04:09;3.67;;;2.10;;
56373;SDS011;58212;47.034;7.376;2023-02-25T04:07:03;5.57;;;2.50;;
56373;SDS011;58212;47.034;7.376;2023-02-25T04:09:30;2.80;;;2.33;;
56373;SDS011;58212;47.034;7.376;2023-02-25T04:11:57;5.68;;;2.17;;
56373;SDS011;58212;47.034;7.376;2023-02-25T04:14:24;4.97;;;2.20;;
56373;SDS011;58212;47.034;7.376;2023-02-25T04:16:52;2.85;;;2.22;;
56373;SDS011;58212;47.034;7.376;2023-02-25T04:19:21;2.70;;;2.00;;
56373;SDS011;58212;47.034;7.376;2023-02-25T04:21:49;2.92;;;1.90;;
56373;SDS011;58212;47.034;7.376;2023-02-25T04:24:17;4.05;;;2.40;;
56373;SDS011;58212;47.034;7.376;2023-02-25T04:26:44;5.13;;;2.72;;
56373;SDS011;58212;47.034;7.376;2023-02-25T04:29:12;4.07;;;2.50;;
56373;SDS011;58212;47.034;7.376;2023-02-25T04:31:39;5.70;;;2.83;;
56373;SDS011;58212;47.034;7.376;2023-02-25T04:34:06;4.47;;;2.85;;
56373;SDS011;58212;47.034;7.376;2023-02-25T04:36:34;3.85;;;2.75;;
56373;SDS011;58212;47.034;7.376;2023-02-25T04:39:02;3.97;;;2.90;;
56373;SDS011;58212;47.034;7.376;2023-02-25T04:41:33;3.03;;;2.33;;
56373;SDS011;58212;47.034;7.376;2023-02-25T04:44:01;4.00;;;2.83;;
56373;SDS011;58212;47.034;7.376;2023-02-25T04:46:29;4.13;;;2.63;;
56373;SDS011;58212;47.034;7.376;2023-02-25T04:48:57;3.88;;;2.55;;
56373;SDS011;58212;47.034;7.376;2023-02-25T04:51:25;4.78;;;2.17;;
56373;SDS011;58212;47.034;7.376;2023-02-25T04:53:52;2.65;;;2.00;;
56373;SDS011;58212;47.034;7.376;2023-02-25T04:56:19;2.85;;;2.08;;
56373;SDS011;58212;47.034;7.376;2023-02-25T04:58:51;3.67;;;2.28;;
56373;SDS011;58212;47.034;7.376;2023-02-25T05:01:18;4.28;;;2.17;;
56373;SDS011;58212;47.034;7.376;2023-02-25T05:03:45;3.75;;;2.30;;
56373;SDS011;58212;47.034;7.376;2023-02-25T05:06:12;3.40;;;2.15;;
56373;SDS011;58212;47.034;7.376;2023-02-25T05:08:43;3.25;;;2.20;;
56373;SDS011;58212;47.034;7.376;2023-02-25T05:11:10;3.25;;;2.10;;
56373;SDS011;58212;47.034;7.376;2023-02-25T05:13:38;3.50;;;2.38;;
56373;SDS011;58212;47.034;7.376;2023-02-25T05:16:07;3.60;;;2.13;;
56373;SDS011;58212;47.034;7.376;2023-02-25T05:18:36;3.45;;;2.00;;
56373;SDS011;58212;47.034;7.376;2023-02-25T05:21:03;2.78;;;1.83;;
56373;SDS011;58212;47.034;7.376;2023-02-25T05:23:33;2.85;;;1.92;;
56373;SDS011;58212;47.034;7.376;2023-02-25T05:26:01;2.35;;;1.88;;
56373;SDS011;58212;47.034;7.376;2023-02-25T05:28:32;2.28;;;1.83;;
56373;SDS011;58212;47.034;7.376;2023-02-25T05:31:02;2.85;;;2.30;;
56373;SDS011;58212;47.034;7.376;2023-02-25T05:33:32;3.55;;;1.98;;
56373;SDS011;58212;47.034;7.376;2023-02-25T05:35:59;4.47;;;2.60;;
56373;SDS011;58212;47.034;7.376;2023-02-25T05:38:26;3.78;;;2.63;;
56373;SDS011;58212;47.034;7.376;2023-02-25T05:40:53;3.33;;;1.92;;
56373;SDS011;58212;47.034;7.376;2023-02-25T05:43:21;3.85;;;1.90;;
56373;SDS011;58212;47.034;7.376;2023-02-25T05:45:51;3.70;;;2.13;;
56373;SDS011;58212;47.034;7.376;2023-02-25T05:48:19;3.03;;;2.00;;
56373;SDS011;58212;47.034;7.376;2023-02-25T05:50:49;2.58;;;2.17;;
56373;SDS011;58212;47.034;7.376;2023-02-25T05:53:16;3.78;;;2.45;;
56373;SDS011;58212;47.034;7.376;2023-02-25T05:55:43;3.58;;;2.40;;
56373;SDS011;58212;47.034;7.376;2023-02-25T05:58:11;2.15;;;1.95;;
56373;SDS011;58212;47.034;7.376;2023-02-25T06:00:38;3.95;;;2.30;;
56373;SDS011;58212;47.034;7.376;2023-02-25T06:03:05;3.67;;;2.58;;
56373;SDS011;58212;47.034;7.376;2023-02-25T06:05:32;6.20;;;3.28;;
56373;SDS011;58212;47.034;7.376;2023-02-25T06:08:01;7.95;;;3.53;;
56373;SDS011;58212;47.034;7.376;2023-02-25T06:10:28;6.07;;;3.97;;
56373;SDS011;58212;47.034;7.376;2023-02-25T06:13:03;7.22;;;3.83;;
56373;SDS011;58212;47.034;7.376;2023-02-25T06:15:30;6.35;;;3.63;;
56373;SDS011;58212;47.034;7.376;2023-02-25T06:17:57;5.22;;;3.10;;
56373;SDS011;58212;47.034;7.376;2023-02-25T06:20:24;6.88;;;3.60;;
56373;SDS011;58212;47.034;7.376;2023-02-25T06:22:55;5.18;;;3.90;;
56373;SDS011;58212;47.034;7.376;2023-02-25T06:25:24;5.30;;;3.40;;
56373;SDS011;58212;47.034;7.376;2023-02-25T06:27:54;5.05;;;3.55;;
56373;SDS011;58212;47.034;7.376;2023-02-25T06:30:21;5.82;;;4.30;;
56373;SDS011;58212;47.034;7.376;2023-02-25T06:32:50;7.63;;;5.70;;
56373;SDS011;58212;47.034;7.376;2023-02-25T06:35:18;7.78;;;5.65;;
56373;SDS011;58212;47.034;7.376;2023-02-25T06:37:47;8.00;;;5.80;;
56373;SDS011;58212;47.034;7.376;2023-02-25T06:40:18;9.85;;;5.50;;
56373;SDS011;58212;47.034;7.376;2023-02-25T06:42:47;7.35;;;5.82;;
56373;SDS011;58212;47.034;7.376;2023-02-25T06:45:14;8.07;;;6.13;;
56373;SDS011;58212;47.034;7.376;2023-02-25T06:47:45;10.35;;;6.28;;
56373;SDS011;58212;47.034;7.376;2023-02-25T06:50:12;8.00;;;5.60;;
56373;SDS011;58212;47.034;7.376;2023-02-25T06:52:39;9.55;;;6.55;;
56373;SDS011;58212;47.034;7.376;2023-02-25T06:55:09;9.57;;;6.35;;
56373;SDS011;58212;47.034;7.376;2023-02-25T06:57:36;6.95;;;5.68;;
56373;SDS011;58212;47.034;7.376;2023-02-25T07:00:06;8.10;;;5.75;;
56373;SDS011;58212;47.034;7.376;2023-02-25T07:02:34;7.22;;;5.63;;
56373;SDS011;58212;47.034;7.376;2023-02-25T07:05:01;7.50;;;6.22;;
56373;SDS011;58212;47.034;7.376;2023-02-25T07:07:29;8.60;;;5.72;;
56373;SDS011;58212;47.034;7.376;2023-02-25T07:09:56;8.20;;;5.40;;
56373;SDS011;58212;47.034;7.376;2023-02-25T07:12:24;6.93;;;5.72;;
56373;SDS011;58212;47.034;7.376;2023-02-25T07:14:51;9.65;;;5.90;;
56373;SDS011;58212;47.034;7.376;2023-02-25T07:17:19;7.63;;;5.95;;
56373;SDS011;58212;47.034;7.376;2023-02-25T07:19:46;8.85;;;6.22;;
56373;SDS011;58212;47.034;7.376;2023-02-25T07:22:13;8.35;;;5.78;;
56373;SDS011;58212;47.034;7.376;2023-02-25T07:24:40;7.47;;;5.85;;
56373;SDS011;58212;47.034;7.376;2023-02-25T07:27:07;7.95;;;6.32;;
56373;SDS011;58212;47.034;7.376;2023-02-25T07:29:35;7.05;;;6.03;;
56373;SDS011;58212;47.034;7.376;2023-02-25T07:32:03;7.95;;;6.60;;
56373;SDS011;58212;47.034;7.376;2023-02-25T07:34:34;9.07;;;6.07;;
56373;SDS011;58212;47.034;7.376;2023-02-25T07:37:02;9.63;;;7.30;;
56373;SDS011;58212;47.034;7.376;2023-02-25T07:39:29;9.48;;;6.88;;
56373;SDS011;58212;47.034;7.376;2023-02-25T07:41:55;7.07;;;6.00;;
56373;SDS011;58212;47.034;7.376;2023-02-25T07:44:22;7.82;;;6.35;;
56373;SDS011;58212;47.034;7.376;2023-02-25T07:46:49;8.77;;;6.88;;
56373;SDS011;58212;47.034;7.376;2023-02-25T07:49:16;8.75;;;6.35;;
56373;SDS011;58212;47.034;7.376;2023-02-25T07:51:45;10.30;;;6.93;;
56373;SDS011;58212;47.034;7.376;2023-02-25T07:54:12;9.25;;;6.97;;
56373;SDS011;58212;47.034;7.376;2023-02-25T07:56:41;9.32;;;6.75;;
56373;SDS011;58212;47.034;7.376;2023-02-25T07:59:13;8.57;;;6.70;;
56373;SDS011;58212;47.034;7.376;2023-02-25T08:01:40;11.32;;;7.15;;
56373;SDS011;58212;47.034;7.376;2023-02-25T08:04:08;9.40;;;7.28;;
56373;SDS011;58212;47.034;7.376;2023-02-25T08:06:36;7.78;;;6.75;;
56373;SDS011;58212;47.034;7.376;2023-02-25T08:09:06;8.70;;;6.82;;
56373;SDS011;58212;47.034;7.376;2023-02-25T08:11:36;8.63;;;7.32;;
56373;SDS011;58212;47.034;7.376;2023-02-25T08:14:05;9.32;;;7.30;;
56373;SDS011;58212;47.034;7.376;2023-02-25T08:16:32;9.60;;;7.32;;
56373;SDS011;58212;47.034;7.376;2023-02-25T08:19:00;10.98;;;7.57;;
56373;SDS011;58212;47.034;7.376;2023-02-25T08:21:28;9.30;;;7.00;;
56373;SDS011;58212;47.034;7.376;2023-02-25T08:23:55;9.63;;;7.38;;
56373;SDS011;58212;47.034;7.376;2023-02-25T08:26:23;8.18;;;7.32;;
56373;SDS011;58212;47.034;7.376;2023-02-25T08:28:54;8.20;;;6.75;;
56373;SDS011;58212;47.034;7.376;2023-02-25T08:31:25;8.52;;;7.00;;
56373;SDS011;58212;47.034;7.376;2023-02-25T08:33:52;8.73;;;7.30;;
56373;SDS011;58212;47.034;7.376;2023-02-25T08:36:21;7.80;;;6.63;;
56373;SDS011;58212;47.034;7.376;2023-02-25T08:38:50;9.45;;;7.07;;
56373;SDS011;58212;47.034;7.376;2023-02-25T08:41:18;10.05;;;8.02;;
56373;SDS011;58212;47.034;7.376;2023-02-25T08:43:48;9.32;;;8.30;;
56373;SDS011;58212;47.034;7.376;2023-02-25T08:46:19;9.73;;;7.82;;
56373;SDS011;58212;47.034;7.376;2023-02-25T08:48:50;11.75;;;7.75;;
56373;SDS011;58212;47.034;7.376;2023-02-25T08:51:19;9.85;;;7.70;;
56373;SDS011;58212;47.034;7.376;2023-02-25T08:53:46;12.90;;;8.35;;
56373;SDS011;58212;47.034;7.376;2023-02-25T08:56:14;11.82;;;8.50;;
56373;SDS011;58212;47.034;7.376;2023-02-25T08:59:10;12.00;;;7.63;;
56373;SDS011;58212;47.034;7.376;2023-02-25T09:01:38;9.85;;;8.27;;
56373;SDS011;58212;47.034;7.376;2023-02-25T09:04:13;11.23;;;8.23;;
56373;SDS011;58212;47.034;7.376;2023-02-25T09:06:42;9.00;;;7.95;;
56373;SDS011;58212;47.034;7.376;2023-02-25T09:09:11;9.60;;;7.97;;
56373;SDS011;58212;47.034;7.376;2023-02-25T09:11:41;10.05;;;7.53;;
56373;SDS011;58212;47.034;7.376;2023-02-25T09:14:10;9.88;;;8.18;;
56373;SDS011;58212;47.034;7.376;2023-02-25T09:16:38;10.05;;;7.80;;
56373;SDS011;58212;47.034;7.376;2023-02-25T09:19:06;11.82;;;8.45;;
56373;SDS011;58212;47.034;7.376;2023-02-25T09:21:35;8.35;;;7.50;;
56373;SDS011;58212;47.034;7.376;2023-02-25T09:24:05;11.55;;;8.98;;
56373;SDS011;58212;47.034;7.376;2023-02-25T09:26:32;10.02;;;7.75;;
56373;SDS011;58212;47.034;7.376;2023-02-25T09:28:59;9.80;;;8.02;;
56373;SDS011;58212;47.034;7.376;2023-02-25T09:31:28;8.55;;;7.05;;
56373;SDS011;58212;47.034;7.376;2023-02-25T09:33:55;10.02;;;7.95;;
56373;SDS011;58212;47.034;7.376;2023-02-25T09:36:22;11.18;;;7.97;;
56373;SDS011;58212;47.034;7.376;2023-02-25T09:38:50;9.75;;;7.93;;
56373;SDS011;58212;47.034;7.376;2023-02-25T09:41:23;9.05;;;7.63;;
56373;SDS011;58212;47.034;7.376;2023-02-25T09:43:57;12.38;;;7.97;;
56373;SDS011;58212;47.034;7.376;2023-02-25T09:46:32;10.40;;;7.80;;
56373;SDS011;58212;47.034;7.376;2023-02-25T09:49:05;11.95;;;8.32;;
56373;SDS011;58212;47.034;7.376;2023-02-25T09:51:39;10.32;;;7.80;;
56373;SDS011;58212;47.034;7.376;2023-02-25T09:54:14;8.82;;;7.32;;
56373;SDS011;58212;47.034;7.376;2023-02-25T09:56:46;11.38;;;8.05;;
56373;SDS011;58212;47.034;7.376;2023-02-25T09:59:15;9.98;;;7.80;;
56373;SDS011;58212;47.034;7.376;2023-02-25T10:01:48;9.93;;;7.60;;
56373;SDS011;58212;47.034;7.376;2023-02-25T10:04:23;10.70;;;7.63;;
56373;SDS011;58212;47.034;7.376;2023-02-25T10:07:00;8.07;;;6.85;;
56373;SDS011;58212;47.034;7.376;2023-02-25T10:09:37;8.68;;;6.53;;
56373;SDS011;58212;47.034;7.376;2023-02-25T10:12:13;11.23;;;7.38;;
56373;SDS011;58212;47.034;7.376;2023-02-25T10:15:02;11.05;;;7.05;;
56373;SDS011;58212;47.034;7.376;2023-02-25T10:17:46;10.90;;;7.70;;
56373;SDS011;58212;47.034;7.376;2023-02-25T10:20:56;9.30;;;7.13;;
56373;SDS011;58212;47.034;7.376;2023-02-25T10:23:36;9.52;;;7.32;;
56373;SDS011;58212;47.034;7.376;2023-02-25T10:26:38;9.88;;;7.55;;
56373;SDS011;58212;47.034;7.376;2023-02-25T10:29:11;10.63;;;7.57;;
56373;SDS011;58212;47.034;7.376;2023-02-25T10:31:52;9.70;;;7.60;;
56373;SDS011;58212;47.034;7.376;2023-02-25T10:34:27;9.68;;;7.05;;
56373;SDS011;58212;47.034;7.376;2023-02-25T10:36:58;9.05;;;7.32;;
56373;SDS011;58212;47.034;7.376;2023-02-25T10:39:25;10.27;;;7.88;;
56373;SDS011;58212;47.034;7.376;2023-02-25T10:41:53;8.15;;;7.28;;
56373;SDS011;58212;47.034;7.376;2023-02-25T10:44:20;9.07;;;7.10;;
56373;SDS011;58212;47.034;7.376;2023-02-25T10:46:49;7.88;;;7.07;;
56373;SDS011;58212;47.034;7.376;2023-02-25T10:49:20;11.32;;;8.40;;
56373;SDS011;58212;47.034;7.376;2023-02-25T10:51:58;9.73;;;7.43;;
56373;SDS011;58212;47.034;7.376;2023-02-25T10:54:29;9.15;;;7.40;;
56373;SDS011;58212;47.034;7.376;2023-02-25T10:56:58;7.07;;;6.32;;
56373;SDS011;58212;47.034;7.376;2023-02-25T10:59:28;9.77;;;7.55;;
56373;SDS011;58212;47.034;7.376;2023-02-25T11:02:22;9.90;;;7.63;;
56373;SDS011;58212;47.034;7.376;2023-02-25T11:04:52;11.32;;;7.78;;
56373;SDS011;58212;47.034;7.376;2023-02-25T11:07:30;9.20;;;7.72;;
56373;SDS011;58212;47.034;7.376;2023-02-25T11:10:13;8.77;;;7.30;;
56373;SDS011;58212;47.034;7.376;2023-02-25T11:18:55;10.70;;;8.43;;
56373;SDS011;58212;47.034;7.376;2023-02-25T11:21:49;11.93;;;8.63;;
56373;SDS011;58212;47.034;7.376;2023-02-25T11:24:21;12.00;;;8.70;;
56373;SDS011;58212;47.034;7.376;2023-02-25T11:27:00;10.60;;;8.98;;
56373;SDS011;58212;47.034;7.376;2023-02-25T11:29:30;10.30;;;7.95;;
56373;SDS011;58212;47.034;7.376;2023-02-25T11:31:59;9.52;;;7.80;;
56373;SDS011;58212;47.034;7.376;2023-02-25T11:34:33;9.85;;;8.50;;
56373;SDS011;58212;47.034;7.376;2023-02-25T11:37:24;9.18;;;7.28;;
56373;SDS011;58212;47.034;7.376;2023-02-25T11:40:00;11.85;;;8.38;;
56373;SDS011;58212;47.034;7.376;2023-02-25T11:42:27;9.50;;;7.47;;
56373;SDS011;58212;47.034;7.376;2023-02-25T11:44:57;9.27;;;7.65;;
56373;SDS011;58212;47.034;7.376;2023-02-25T11:47:25;9.05;;;7.57;;
56373;SDS011;58212;47.034;7.376;2023-02-25T11:50:01;10.32;;;7.80;;
56373;SDS011;58212;47.034;7.376;2023-02-25T11:52:43;10.60;;;7.85;;
56373;SDS011;58212;47.034;7.376;2023-02-25T11:55:21;9.65;;;8.52;;
56373;SDS011;58212;47.034;7.376;2023-02-25T11:58:04;10.27;;;7.65;;
56373;SDS011;58212;47.034;7.376;2023-02-25T12:00:41;10.10;;;7.45;;
56373;SDS011;58212;47.034;7.376;2023-02-25T12:07:03;10.60;;;6.80;;
56373;SDS011;58212;47.034;7.376;2023-02-25T12:10:02;8.40;;;7.40;;
56373;SDS011;58212;47.034;7.376;2023-02-25T12:12:51;8.80;;;7.13;;
56373;SDS011;58212;47.034;7.376;2023-02-25T12:15:59;9.55;;;7.25;;
56373;SDS011;58212;47.034;7.376;2023-02-25T12:18:56;12.90;;;7.93;;
56373;SDS011;58212;47.034;7.376;2023-02-25T12:24:47;10.10;;;7.00;;
56373;SDS011;58212;47.034;7.376;2023-02-25T12:30:39;10.25;;;7.47;;
56373;SDS011;58212;47.034;7.376;2023-02-25T12:33:28;15.05;;;10.68;;
56373;SDS011;58212;47.034;7.376;2023-02-25T12:36:22;9.35;;;7.28;;
56373;SDS011;58212;47.034;7.376;2023-02-25T12:39:18;8.50;;;7.03;;
56373;SDS011;58212;47.034;7.376;2023-02-25T12:42:07;7.70;;;6.05;;
56373;SDS011;58212;47.034;7.376;2023-02-25T12:45:02;9.52;;;7.20;;
56373;SDS011;58212;47.034;7.376;2023-02-25T12:47:57;9.48;;;7.05;;
56373;SDS011;58212;47.034;7.376;2023-02-25T12:50:37;8.05;;;4.97;;
56373;SDS011;58212;47.034;7.376;2023-02-25T12:53:22;5.97;;;4.88;;
56373;SDS011;58212;47.034;7.376;2023-02-25T12:56:15;10.48;;;7.20;;
56373;SDS011;58212;47.034;7.376;2023-02-25T12:59:19;7.13;;;5.32;;
56373;SDS011;58212;47.034;7.376;2023-02-25T13:02:03;8.40;;;7.43;;
56373;SDS011;58212;47.034;7.376;2023-02-25T13:05:22;9.68;;;8.10;;
56373;SDS011;58212;47.034;7.376;2023-02-25T13:08:05;7.00;;;5.53;;
56373;SDS011;58212;47.034;7.376;2023-02-25T13:10:53;6.18;;;5.10;;
56373;SDS011;58212;47.034;7.376;2023-02-25T13:16:25;8.32;;;6.05;;
56373;SDS011;58212;47.034;7.376;2023-02-25T13:21:58;6.88;;;5.10;;
56373;SDS011;58212;47.034;7.376;2023-02-25T13:24:39;7.82;;;5.93;;
56373;SDS011;58212;47.034;7.376;2023-02-25T13:27:19;9.32;;;5.60;;
56373;SDS011;58212;47.034;7.376;2023-02-25T13:30:10;8.80;;;7.20;;
56373;SDS011;58212;47.034;7.376;2023-02-25T13:33:04;8.82;;;5.88;;
56373;SDS011;58212;47.034;7.376;2023-02-25T13:35:58;6.85;;;5.20;;
56373;SDS011;58212;47.034;7.376;2023-02-25T13:38:40;7.43;;;6.18;;
56373;SDS011;58212;47.034;7.376;2023-02-25T13:41:29;6.15;;;4.82;;
56373;SDS011;58212;47.034;7.376;2023-02-25T13:47:27;10.02;;;6.55;;
56373;SDS011;58212;47.034;7.376;2023-02-25T13:50:17;9.05;;;6.72;;
56373;SDS011;58212;47.034;7.376;2023-02-25T13:53:03;8.18;;;6.45;;
56373;SDS011;58212;47.034;7.376;2023-02-25T13:55:53;12.95;;;11.55;;
56373;SDS011;58212;47.034;7.376;2023-02-25T13:58:44;10.93;;;7.88;;
56373;SDS011;58212;47.034;7.376;2023-02-25T14:01:47;8.23;;;5.72;;
56373;SDS011;58212;47.034;7.376;2023-02-25T14:04:35;6.03;;;5.43;;
56373;SDS011;58212;47.034;7.376;2023-02-25T14:07:31;6.18;;;4.70;;
56373;SDS011;58212;47.034;7.376;2023-02-25T14:13:18;8.45;;;5.13;;
56373;SDS011;58212;47.034;7.376;2023-02-25T14:16:12;6.35;;;4.50;;
56373;SDS011;58212;47.034;7.376;2023-02-25T14:18:55;7.57;;;5.70;;
56373;SDS011;58212;47.034;7.376;2023-02-25T14:24:31;4.65;;;3.85;;
56373;SDS011;58212;47.034;7.376;2023-02-25T14:27:10;6.35;;;4.20;;
56373;SDS011;58212;47.034;7.376;2023-02-25T14:29:54;8.48;;;5.65;;
56373;SDS011;58212;47.034;7.376;2023-02-25T14:32:38;4.30;;;3.90;;
56373;SDS011;58212;47.034;7.376;2023-02-25T14:35:14;6.65;;;4.40;;
56373;SDS011;58212;47.034;7.376;2023-02-25T14:38:01;5.90;;;4.10;;
56373;SDS011;58212;47.034;7.376;2023-02-25T14:41:00;8.30;;;4.55;;
56373;SDS011;58212;47.034;7.376;2023-02-25T14:43:47;7.28;;;3.83;;
56373;SDS011;58212;47.034;7.376;2023-02-25T14:46:21;7.72;;;5.10;;
56373;SDS011;58212;47.034;7.376;2023-02-25T14:48:58;6.18;;;4.10;;
56373;SDS011;58212;47.034;7.376;2023-02-25T14:51:40;7.80;;;5.10;;
56373;SDS011;58212;47.034;7.376;2023-02-25T15:00:48;6.00;;;4.07;;
56373;SDS011;58212;47.034;7.376;2023-02-25T15:06:37;5.75;;;3.80;;
56373;SDS011;58212;47.034;7.376;2023-02-25T15:09:30;6.30;;;3.92;;
56373;SDS011;58212;47.034;7.376;2023-02-25T15:12:22;6.38;;;4.00;;
56373;SDS011;58212;47.034;7.376;2023-02-25T15:15:23;5.68;;;4.15;;
56373;SDS011;58212;47.034;7.376;2023-02-25T15:24:09;6.50;;;4.20;;
56373;SDS011;58212;47.034;7.376;2023-02-25T15:26:59;6.80;;;5.22;;
56373;SDS011;58212;47.034;7.376;2023-02-25T15:32:21;3.63;;;2.75;;
56373;SDS011;58212;47.034;7.376;2023-02-25T15:34:54;4.60;;;2.95;;
56373;SDS011;58212;47.034;7.376;2023-02-25T15:37:25;3.35;;;2.75;;
56373;SDS011;58212;47.034;7.376;2023-02-25T15:39:57;3.78;;;2.53;;
56373;SDS011;58212;47.034;7.376;2023-02-25T15:42:43;4.85;;;3.33;;
56373;SDS011;58212;47.034;7.376;2023-02-25T15:51:39;5.60;;;3.85;;
56373;SDS011;58212;47.034;7.376;2023-02-25T15:54:08;8.13;;;3.47;;
56373;SDS011;58212;47.034;7.376;2023-02-25T15:56:49;6.55;;;3.85;;
56373;SDS011;58212;47.034;7.376;2023-02-25T15:59:39;5.75;;;2.95;;
56373;SDS011;58212;47.034;7.376;2023-02-25T16:05:14;4.13;;;2.90;;
56373;SDS011;58212;47.034;7.376;2023-02-25T16:08:02;3.67;;;3.00;;
56373;SDS011;58212;47.034;7.376;2023-02-25T16:10:39;4.57;;;3.20;;
56373;SDS011;58212;47.034;7.376;2023-02-25T16:13:15;5.55;;;2.67;;
56373;SDS011;58212;47.034;7.376;2023-02-25T16:15:50;3.60;;;2.22;;
56373;SDS011;58212;47.034;7.376;2023-02-25T16:18:30;5.80;;;2.83;;
56373;SDS011;58212;47.034;7.376;2023-02-25T16:21:01;5.00;;;2.70;;
56373;SDS011;58212;47.034;7.376;2023-02-25T16:23:55;4.55;;;2.50;;
56373;SDS011;58212;47.034;7.376;2023-02-25T16:26:36;6.43;;;2.50;;
56373;SDS011;58212;47.034;7.376;2023-02-25T16:29:14;5.78;;;2.75;;
56373;SDS011;58212;47.034;7.376;2023-02-25T16:31:56;4.32;;;2.65;;
56373;SDS011;58212;47.034;7.376;2023-02-25T16:34:29;6.35;;;2.60;;
56373;SDS011;58212;47.034;7.376;2023-02-25T16:37:28;9.13;;;2.65;;
56373;SDS011;58212;47.034;7.376;2023-02-25T16:40:04;4.20;;;2.63;;